Aviation Digital Data Service (ADDS)

Output produced by METARs form (1504 UTC 25 January 2020)
found at http://www.aviationweather.gov/metar/data/
 
LETO 251400Z 16008KT 120V180 8000 -RA FEW014 SCT018 BKN027 09/07 Q1016 TEMPO 3000 RA BKN012
TAF LETO 251100Z 2512/2612 VRB04KT 9999 FEW035 BKN045 TX10/2515Z TN03/2606Z 
     TEMPO 2512/2518 18008KT 
     PROB40 
     TEMPO 2512/2521 3000 RA SHRA BKN012 SCT025TCU 
     PROB40 
     TEMPO 2600/2611 1500 BCFG BKN004 
     PROB30 
     TEMPO 2602/2608 0300 FG OVC002
       
LEZG 251430Z 10008KT 9999 BKN055 12/09 Q1017
TAF LEZG 251100Z 2512/2612 11008KT 9999 SCT009 SCT030 TX09/2513Z TN05/2606Z 
     PROB40 
     TEMPO 2512/2515 4000 RADZ BKN007 
     BECMG 2520/2522 VRB04KT 
     PROB40 
     TEMPO 2520/2602 4000 RA BKN009 
     BECMG 2604/2607 28006KT
       
LERT 251400Z 15006KT 9999 SCT024 SCT059 14/12 Q1015 NOSIG
TAF LERT 251400Z 2515/2524 19009KT 9999 SCT030 
     PROB40 
     TEMPO 2515/2517 4000 SHRA SCT030TCU
       
LELC 251430Z VRB02KT 9999 SCT022 15/13 Q1017 NOSIG
TAF AMD LELC 251144Z 2512/2612 33005KT 9999 SCT035 TX17/2514Z TN07/2606Z 
     PROB40 
     TEMPO 2512/2516 03010KT BKN013 
     PROB40 
     TEMPO 2520/2602 4000 SHRA SCT030TCU
       
LEAB 251400Z 16006KT 140V200 9999 -RA FEW020 BKN042 09/07 Q1017 NOSIG
TAF LEAB 251400Z 2515/2524 16007KT 9999 SCT015 BKN045 
     PROB40 
     TEMPO 2515/2517 3000 RA SHRA BKN010 SCT030TCU 
     BECMG 2522/2524 OVC020
       
LEBZ 251441Z 29003KT 240V320 9999 SCT030 14/09 Q1015
TAF LEBZ 251100Z 2512/2612 VRB04KT 9999 SCT035 TX14/2513Z TN04/2606Z 
     PROB30 
     TEMPO 2513/2516 4000 SHRA SCT030TCU 
     TEMPO 2602/2611 4000 BR BKN010 
     PROB40 
     TEMPO 2603/2609 0800 FG
       
LEMO 251500Z 19017KT 160V220 9999 FEW020TCU BKN050 14/10 Q1015 NOSIG
TAF LEMO 251400Z 2515/2524 18009KT 9999 SCT035 
     PROB40 
     TEMPO 2515/2520 4000 SHRA SCT030TCU
       
LESA 251430Z 28003KT 240V320 9999 FEW017 BKN030 08/05 Q1015
TAF AMD LESA 251230Z 2512/2612 VRB05KT 9999 SCT007 BKN040 TX07/2514Z TNM01/2607Z

     PROB40 
     TEMPO 2512/2515 3000 RA BR BKN010 
     TEMPO 2522/2610 0100 FG VV001 
     TEMPO 2523/2611 BKN003 
     BECMG 2607/2609 22010KT
       
GCLP 251430Z 03017KT 9999 FEW045 BKN050 20/10 Q1023 NOSIG
TAF GCLP 251400Z 2515/2615 03014KT 9999 SCT035 TX21/2515Z TN14/2606Z 
     PROB40 
     TEMPO 2518/2610 33010KT
       
LIED 251355Z 20002KT 9999 FEW025 18/11 Q1020 RMK SCT SCT200 VIS MIN 9999 WIND THR35 15001KT WIND THR17 /////KT BLU
TAF LIED 251400Z 2515/2524 VRB02KT CAVOK
       
LIPR 251450Z 28008KT 1500 BR BKN007 06/05 Q1023
TAF LIPR 251400Z 2515/2524 28008KT 0800 FG BKN005 
     BECMG 2517/2519 0200 FG